sensor_id;sensor_type;location;lat;lon;timestamp;pressure;altitude;pressure_sealevel;temperature;humidity
76070;BME280;64768;51.738;5.852;2023-02-22T00:16:50;101570.25;;;6.35;100.00
76070;BME280;64768;51.738;5.852;2023-02-22T00:19:46;101593.75;;;6.50;100.00
76070;BME280;64768;51.738;5.852;2023-02-22T00:22:55;101565.63;;;6.35;100.00
76070;BME280;64768;51.738;5.852;2023-02-22T00:25:58;101578.53;;;6.42;100.00
76070;BME280;64768;51.738;5.852;2023-02-22T00:28:32;101581.28;;;6.45;100.00
76070;BME280;64768;51.738;5.852;2023-02-22T00:36:51;101598.31;;;6.46;100.00
76070;BME280;64768;51.738;5.852;2023-02-22T00:47:24;101584.22;;;6.37;100.00
76070;BME280;64768;51.738;5.852;2023-02-22T00:49:58;101607.56;;;6.45;100.00
76070;BME280;64768;51.738;5.852;2023-02-22T00:52:55;101576.09;;;6.37;100.00
76070;BME280;64768;51.738;5.852;2023-02-22T00:58:11;101581.88;;;6.35;100.00
76070;BME280;64768;51.738;5.852;2023-02-22T01:01:11;101583.94;;;6.42;100.00
76070;BME280;64768;51.738;5.852;2023-02-22T01:04:00;101579.66;;;6.41;100.00
76070;BME280;64768;51.738;5.852;2023-02-22T01:06:51;101570.75;;;6.40;100.00
76070;BME280;64768;51.738;5.852;2023-02-22T01:09:35;101567.09;;;6.32;100.00
76070;BME280;64768;51.738;5.852;2023-02-22T01:12:09;101573.88;;;6.42;100.00
76070;BME280;64768;51.738;5.852;2023-02-22T01:14:51;101571.97;;;6.43;100.00
76070;BME280;64768;51.738;5.852;2023-02-22T01:17:28;101564.63;;;6.43;100.00
76070;BME280;64768;51.738;5.852;2023-02-22T01:26:48;101547.38;;;6.32;100.00
76070;BME280;64768;51.738;5.852;2023-02-22T01:37:08;101546.78;;;6.39;100.00
76070;BME280;64768;51.738;5.852;2023-02-22T01:40:06;101526.75;;;6.24;100.00
76070;BME280;64768;51.738;5.852;2023-02-22T01:42:59;101524.47;;;6.26;100.00
76070;BME280;64768;51.738;5.852;2023-02-22T01:46:02;101530.25;;;6.24;100.00
76070;BME280;64768;51.738;5.852;2023-02-22T01:48:42;101534.56;;;6.29;100.00
76070;BME280;64768;51.738;5.852;2023-02-22T01:51:28;101537.44;;;6.36;100.00
76070;BME280;64768;51.738;5.852;2023-02-22T01:54:22;101514.28;;;6.19;100.00
76070;BME280;64768;51.738;5.852;2023-02-22T01:57:12;101521.75;;;6.26;100.00
76070;BME280;64768;51.738;5.852;2023-02-22T02:03:35;101506.44;;;6.14;100.00
76070;BME280;64768;51.738;5.852;2023-02-22T02:09:39;101510.22;;;6.10;100.00
76070;BME280;64768;51.738;5.852;2023-02-22T02:12:16;101511.72;;;6.07;100.00
76070;BME280;64768;51.738;5.852;2023-02-22T02:15:26;101501.97;;;6.03;100.00
76070;BME280;64768;51.738;5.852;2023-02-22T02:18:06;101506.31;;;6.07;100.00
76070;BME280;64768;51.738;5.852;2023-02-22T02:20:57;101494.91;;;5.98;100.00
76070;BME280;64768;51.738;5.852;2023-02-22T02:27:28;101486.28;;;5.92;100.00
76070;BME280;64768;51.738;5.852;2023-02-22T02:43:27;101496.88;;;6.01;100.00
76070;BME280;64768;51.738;5.852;2023-02-22T02:46:12;101475.06;;;5.90;100.00
76070;BME280;64768;51.738;5.852;2023-02-22T03:05:57;101466.94;;;5.90;100.00
76070;BME280;64768;51.738;5.852;2023-02-22T03:08:52;101469.97;;;5.89;100.00
76070;BME280;64768;51.738;5.852;2023-02-22T03:11:50;101455.00;;;5.76;100.00
76070;BME280;64768;51.738;5.852;2023-02-22T03:14:54;101452.31;;;5.76;100.00
76070;BME280;64768;51.738;5.852;2023-02-22T03:34:44;101462.34;;;5.75;100.00
76070;BME280;64768;51.738;5.852;2023-02-22T03:37:19;101460.25;;;5.68;100.00
76070;BME280;64768;51.738;5.852;2023-02-22T03:53:16;101440.41;;;5.61;100.00
76070;BME280;64768;51.738;5.852;2023-02-22T03:56:17;101434.56;;;5.59;100.00
76070;BME280;64768;51.738;5.852;2023-02-22T03:59:04;101449.00;;;5.66;100.00
76070;BME280;64768;51.738;5.852;2023-02-22T04:02:23;101428.31;;;5.55;100.00
76070;BME280;64768;51.738;5.852;2023-02-22T04:05:05;101430.31;;;5.58;100.00
76070;BME280;64768;51.738;5.852;2023-02-22T04:11:27;101410.78;;;5.49;100.00
76070;BME280;64768;51.738;5.852;2023-02-22T04:14:08;101438.84;;;5.60;100.00
76070;BME280;64768;51.738;5.852;2023-02-22T04:17:20;101405.66;;;5.43;100.00
76070;BME280;64768;51.738;5.852;2023-02-22T04:20:18;101408.00;;;5.45;100.00
76070;BME280;64768;51.738;5.852;2023-02-22T04:23:05;101413.41;;;5.45;100.00
76070;BME280;64768;51.738;5.852;2023-02-22T04:25:43;101414.28;;;5.49;100.00
76070;BME280;64768;51.738;5.852;2023-02-22T04:34:55;101398.34;;;5.44;100.00
76070;BME280;64768;51.738;5.852;2023-02-22T04:43:20;101382.41;;;5.39;100.00
76070;BME280;64768;51.738;5.852;2023-02-22T04:46:21;101378.06;;;5.34;100.00
76070;BME280;64768;51.738;5.852;2023-02-22T04:51:47;101376.66;;;5.40;100.00
76070;BME280;64768;51.738;5.852;2023-02-22T04:54:42;101375.88;;;5.40;100.00
76070;BME280;64768;51.738;5.852;2023-02-22T04:57:15;101380.22;;;5.45;100.00
76070;BME280;64768;51.738;5.852;2023-02-22T05:03:16;101368.91;;;5.39;100.00
76070;BME280;64768;51.738;5.852;2023-02-22T05:06:10;101364.44;;;5.47;100.00
76070;BME280;64768;51.738;5.852;2023-02-22T05:31:11;101331.28;;;5.30;100.00
76070;BME280;64768;51.738;5.852;2023-02-22T05:34:06;101343.03;;;5.38;100.00
76070;BME280;64768;51.738;5.852;2023-02-22T05:39:53;101355.91;;;5.45;100.00
76070;BME280;64768;51.738;5.852;2023-02-22T05:42:55;101354.34;;;5.43;100.00
76070;BME280;64768;51.738;5.852;2023-02-22T06:04:17;101336.56;;;5.42;100.00
76070;BME280;64768;51.738;5.852;2023-02-22T06:27:49;101300.88;;;5.33;100.00
76070;BME280;64768;51.738;5.852;2023-02-22T06:31:19;101295.75;;;5.28;100.00
76070;BME280;64768;51.738;5.852;2023-02-22T06:51:42;101277.69;;;5.32;100.00
76070;BME280;64768;51.738;5.852;2023-02-22T06:54:27;101290.72;;;5.46;100.00
76070;BME280;64768;51.738;5.852;2023-02-22T06:57:17;101278.22;;;5.38;100.00
76070;BME280;64768;51.738;5.852;2023-02-22T07:00:37;101274.81;;;5.41;100.00
76070;BME280;64768;51.738;5.852;2023-02-22T07:03:28;101260.72;;;5.32;100.00
76070;BME280;64768;51.738;5.852;2023-02-22T07:06:28;101275.94;;;5.40;100.00
76070;BME280;64768;51.738;5.852;2023-02-22T07:09:16;101281.78;;;5.42;100.00
76070;BME280;64768;51.738;5.852;2023-02-22T07:11:53;101300.81;;;5.49;100.00
76070;BME280;64768;51.738;5.852;2023-02-22T07:15:10;101292.72;;;5.49;100.00
76070;BME280;64768;51.738;5.852;2023-02-22T07:17:56;101288.72;;;5.43;100.00
76070;BME280;64768;51.738;5.852;2023-02-22T07:21:34;101284.13;;;5.43;100.00
76070;BME280;64768;51.738;5.852;2023-02-22T07:23:29;101288.81;;;5.47;100.00
76070;BME280;64768;51.738;5.852;2023-02-22T07:26:23;101291.06;;;5.45;100.00
76070;BME280;64768;51.738;5.852;2023-02-22T07:29:33;101275.06;;;5.36;100.00
76070;BME280;64768;51.738;5.852;2023-02-22T07:32:17;101299.75;;;5.54;100.00
76070;BME280;64768;51.738;5.852;2023-02-22T07:34:59;101303.25;;;5.54;100.00
76070;BME280;64768;51.738;5.852;2023-02-22T07:37:39;101300.19;;;5.56;100.00
76070;BME280;64768;51.738;5.852;2023-02-22T07:40:18;101292.34;;;5.51;100.00
76070;BME280;64768;51.738;5.852;2023-02-22T07:51:13;101302.47;;;5.54;100.00
76070;BME280;64768;51.738;5.852;2023-02-22T07:54:15;101295.75;;;5.48;100.00
76070;BME280;64768;51.738;5.852;2023-02-22T07:57:23;101305.22;;;5.57;100.00
76070;BME280;64768;51.738;5.852;2023-02-22T07:59:59;101294.38;;;5.54;100.00
76070;BME280;64768;51.738;5.852;2023-02-22T08:02:48;101311.59;;;5.68;100.00
76070;BME280;64768;51.738;5.852;2023-02-22T08:16:58;101306.00;;;5.77;100.00
76070;BME280;64768;51.738;5.852;2023-02-22T08:19:29;101304.50;;;5.80;100.00
76070;BME280;64768;51.738;5.852;2023-02-22T08:22:00;101306.84;;;5.81;100.00
76070;BME280;64768;51.738;5.852;2023-02-22T08:24:53;101296.63;;;5.71;100.00
76070;BME280;64768;51.738;5.852;2023-02-22T08:27:32;101305.66;;;5.79;100.00
76070;BME280;64768;51.738;5.852;2023-02-22T08:30:21;101309.19;;;5.83;100.00
76070;BME280;64768;51.738;5.852;2023-02-22T08:33:08;101313.91;;;5.86;100.00
76070;BME280;64768;51.738;5.852;2023-02-22T08:35:43;101310.94;;;5.91;100.00
76070;BME280;64768;51.738;5.852;2023-02-22T08:38:29;101315.25;;;5.95;100.00
76070;BME280;64768;51.738;5.852;2023-02-22T08:41:05;101319.94;;;5.98;100.00
76070;BME280;64768;51.738;5.852;2023-02-22T08:44:02;101305.59;;;5.94;100.00
76070;BME280;64768;51.738;5.852;2023-02-22T08:46:35;101295.50;;;5.91;100.00
76070;BME280;64768;51.738;5.852;2023-02-22T08:49:17;101317.44;;;6.09;100.00
76070;BME280;64768;51.738;5.852;2023-02-22T08:51:54;101305.44;;;6.07;100.00
76070;BME280;64768;51.738;5.852;2023-02-22T08:54:37;101316.78;;;6.16;100.00
76070;BME280;64768;51.738;5.852;2023-02-22T08:57:19;101303.19;;;6.12;100.00
76070;BME280;64768;51.738;5.852;2023-02-22T09:00:00;101298.72;;;6.20;100.00
76070;BME280;64768;51.738;5.852;2023-02-22T09:02:38;101285.25;;;6.23;100.00
76070;BME280;64768;51.738;5.852;2023-02-22T09:05:30;101288.38;;;6.25;100.00
76070;BME280;64768;51.738;5.852;2023-02-22T09:10:50;101259.09;;;6.31;100.00
76070;BME280;64768;51.738;5.852;2023-02-22T09:13:56;101284.44;;;6.46;100.00
76070;BME280;64768;51.738;5.852;2023-02-22T09:23:16;101280.81;;;6.61;100.00
76070;BME280;64768;51.738;5.852;2023-02-22T09:25:57;101273.84;;;6.60;100.00
76070;BME280;64768;51.738;5.852;2023-02-22T09:28:41;101285.44;;;6.83;100.00
76070;BME280;64768;51.738;5.852;2023-02-22T09:31:13;101287.09;;;6.91;100.00
76070;BME280;64768;51.738;5.852;2023-02-22T09:33:44;101267.75;;;6.93;100.00
76070;BME280;64768;51.738;5.852;2023-02-22T09:36:16;101253.84;;;6.95;100.00
76070;BME280;64768;51.738;5.852;2023-02-22T09:38:53;101261.81;;;7.10;100.00
76070;BME280;64768;51.738;5.852;2023-02-22T09:41:30;101238.72;;;7.20;100.00
76070;BME280;64768;51.738;5.852;2023-02-22T09:44:23;101262.53;;;7.37;100.00
76070;BME280;64768;51.738;5.852;2023-02-22T09:47:23;101240.09;;;7.37;100.00
76070;BME280;64768;51.738;5.852;2023-02-22T09:50:08;101252.19;;;7.46;100.00
76070;BME280;64768;51.738;5.852;2023-02-22T09:52:50;101249.19;;;7.55;100.00
76070;BME280;64768;51.738;5.852;2023-02-22T09:55:47;101229.78;;;7.49;100.00
76070;BME280;64768;51.738;5.852;2023-02-22T09:58:27;101227.19;;;7.64;100.00
76070;BME280;64768;51.738;5.852;2023-02-22T10:01:18;101233.88;;;7.73;100.00
76070;BME280;64768;51.738;5.852;2023-02-22T10:03:55;101238.75;;;7.94;100.00
76070;BME280;64768;51.738;5.852;2023-02-22T10:06:35;101239.19;;;8.00;100.00
76070;BME280;64768;51.738;5.852;2023-02-22T10:09:09;101237.31;;;8.07;100.00
76070;BME280;64768;51.738;5.852;2023-02-22T10:11:57;101244.41;;;8.23;100.00
76070;BME280;64768;51.738;5.852;2023-02-22T10:17:46;101240.34;;;8.43;100.00
76070;BME280;64768;51.738;5.852;2023-02-22T10:23:15;101229.97;;;8.56;100.00
76070;BME280;64768;51.738;5.852;2023-02-22T10:26:01;101241.38;;;8.79;100.00
76070;BME280;64768;51.738;5.852;2023-02-22T10:28:45;101213.44;;;8.79;100.00
76070;BME280;64768;51.738;5.852;2023-02-22T10:31:25;101229.84;;;9.03;100.00
76070;BME280;64768;51.738;5.852;2023-02-22T10:34:15;101200.38;;;9.09;100.00
76070;BME280;64768;51.738;5.852;2023-02-22T10:39:44;101220.72;;;9.51;100.00
76070;BME280;64768;51.738;5.852;2023-02-22T10:42:20;101217.63;;;9.59;100.00
76070;BME280;64768;51.738;5.852;2023-02-22T10:44:53;101213.38;;;9.73;100.00
76070;BME280;64768;51.738;5.852;2023-02-22T10:47:26;101194.72;;;9.71;100.00
76070;BME280;64768;51.738;5.852;2023-02-22T10:50:07;101197.84;;;9.87;100.00
76070;BME280;64768;51.738;5.852;2023-02-22T10:52:39;101199.81;;;9.98;100.00
76070;BME280;64768;51.738;5.852;2023-02-22T10:55:14;101196.69;;;10.03;100.00
76070;BME280;64768;51.738;5.852;2023-02-22T10:58:01;101220.06;;;10.25;100.00
76070;BME280;64768;51.738;5.852;2023-02-22T11:00:57;101196.72;;;10.24;100.00
76070;BME280;64768;51.738;5.852;2023-02-22T11:03:58;101202.16;;;10.45;99.64
76070;BME280;64768;51.738;5.852;2023-02-22T11:10:02;101195.94;;;10.45;97.04
76070;BME280;64768;51.738;5.852;2023-02-22T11:12:50;101203.28;;;10.55;100.00
76070;BME280;64768;51.738;5.852;2023-02-22T11:15:27;101202.50;;;10.62;99.06
76070;BME280;64768;51.738;5.852;2023-02-22T11:18:35;101204.03;;;10.70;99.86
76070;BME280;64768;51.738;5.852;2023-02-22T11:26:37;101192.34;;;10.73;100.00
76070;BME280;64768;51.738;5.852;2023-02-22T11:29:20;101198.97;;;10.75;100.00
76070;BME280;64768;51.738;5.852;2023-02-22T11:32:22;101195.47;;;10.75;99.74
76070;BME280;64768;51.738;5.852;2023-02-22T11:35:18;101206.72;;;10.91;99.58
76070;BME280;64768;51.738;5.852;2023-02-22T11:38:09;101202.41;;;10.97;98.96
76070;BME280;64768;51.738;5.852;2023-02-22T11:40:44;101190.31;;;10.98;100.00
76070;BME280;64768;51.738;5.852;2023-02-22T11:43:19;101191.88;;;11.06;100.00
76070;BME280;64768;51.738;5.852;2023-02-22T11:46:04;101192.59;;;11.14;98.46
76070;BME280;64768;51.738;5.852;2023-02-22T11:52:06;101170.78;;;11.18;100.00
76070;BME280;64768;51.738;5.852;2023-02-22T11:55:07;101164.91;;;11.23;100.00
76070;BME280;64768;51.738;5.852;2023-02-22T11:58:04;101171.81;;;11.38;100.00
76070;BME280;64768;51.738;5.852;2023-02-22T12:00:48;101167.16;;;11.42;100.00
76070;BME280;64768;51.738;5.852;2023-02-22T12:20:02;101150.44;;;11.92;100.00
76070;BME280;64768;51.738;5.852;2023-02-22T12:25:21;101131.38;;;11.88;100.00
76070;BME280;64768;51.738;5.852;2023-02-22T12:28:10;101116.53;;;11.93;100.00
76070;BME280;64768;51.738;5.852;2023-02-22T12:31:04;101122.69;;;12.00;100.00
76070;BME280;64768;51.738;5.852;2023-02-22T12:33:54;101129.91;;;12.21;100.00
76070;BME280;64768;51.738;5.852;2023-02-22T12:42:16;101110.38;;;12.23;100.00
76070;BME280;64768;51.738;5.852;2023-02-22T12:44:54;101098.34;;;12.20;100.00
76070;BME280;64768;51.738;5.852;2023-02-22T12:47:51;101101.34;;;12.29;100.00
76070;BME280;64768;51.738;5.852;2023-02-22T12:50:27;101102.88;;;12.30;100.00
76070;BME280;64768;51.738;5.852;2023-02-22T12:56:20;101112.53;;;12.42;100.00
76070;BME280;64768;51.738;5.852;2023-02-22T13:01:44;101131.44;;;12.60;100.00
76070;BME280;64768;51.738;5.852;2023-02-22T13:04:23;101117.06;;;12.52;100.00
76070;BME280;64768;51.738;5.852;2023-02-22T13:07:26;101143.81;;;12.68;100.00
76070;BME280;64768;51.738;5.852;2023-02-22T13:10:46;101130.63;;;12.63;100.00
76070;BME280;64768;51.738;5.852;2023-02-22T13:13:45;101127.06;;;12.66;100.00
76070;BME280;64768;51.738;5.852;2023-02-22T13:26:49;101141.88;;;12.99;100.00
76070;BME280;64768;51.738;5.852;2023-02-22T13:29:37;101134.16;;;12.94;100.00
76070;BME280;64768;51.738;5.852;2023-02-22T13:32:32;101137.19;;;13.00;100.00
76070;BME280;64768;51.738;5.852;2023-02-22T13:55:21;101117.03;;;12.18;100.00
76070;BME280;64768;51.738;5.852;2023-02-22T13:58:02;101135.38;;;12.21;100.00
76070;BME280;64768;51.738;5.852;2023-02-22T14:00:49;101119.13;;;12.03;100.00
76070;BME280;64768;51.738;5.852;2023-02-22T14:03:35;101121.97;;;11.93;100.00
76070;BME280;64768;51.738;5.852;2023-02-22T14:09:41;101127.53;;;11.82;100.00
76070;BME280;64768;51.738;5.852;2023-02-22T14:15:18;101114.03;;;11.61;100.00
76070;BME280;64768;51.738;5.852;2023-02-22T14:17:57;101124.56;;;11.59;100.00
76070;BME280;64768;51.738;5.852;2023-02-22T14:20:29;101116.06;;;11.46;100.00
76070;BME280;64768;51.738;5.852;2023-02-22T14:23:25;101119.63;;;11.36;100.00
76070;BME280;64768;51.738;5.852;2023-02-22T14:26:11;101116.91;;;11.36;100.00
76070;BME280;64768;51.738;5.852;2023-02-22T14:28:59;101129.00;;;11.35;100.00
76070;BME280;64768;51.738;5.852;2023-02-22T14:31:58;101133.34;;;11.29;100.00
76070;BME280;64768;51.738;5.852;2023-02-22T14:34:43;101121.34;;;11.12;100.00
76070;BME280;64768;51.738;5.852;2023-02-22T14:37:21;101120.22;;;11.02;100.00
76070;BME280;64768;51.738;5.852;2023-02-22T14:39:59;101139.69;;;11.08;100.00
76070;BME280;64768;51.738;5.852;2023-02-22T14:42:41;101142.81;;;11.03;100.00
76070;BME280;64768;51.738;5.852;2023-02-22T14:45:25;101145.19;;;10.97;100.00
76070;BME280;64768;51.738;5.852;2023-02-22T14:50:42;101145.59;;;10.89;100.00
76070;BME280;64768;51.738;5.852;2023-02-22T14:55:58;101152.66;;;10.75;100.00
76070;BME280;64768;51.738;5.852;2023-02-22T14:58:37;101148.00;;;10.72;100.00
76070;BME280;64768;51.738;5.852;2023-02-22T15:01:22;101153.06;;;10.70;100.00
76070;BME280;64768;51.738;5.852;2023-02-22T15:03:58;101157.75;;;10.66;100.00
76070;BME280;64768;51.738;5.852;2023-02-22T15:06:31;101163.56;;;10.68;100.00
76070;BME280;64768;51.738;5.852;2023-02-22T15:09:07;101161.63;;;10.65;100.00
76070;BME280;64768;51.738;5.852;2023-02-22T15:11:41;101142.63;;;10.51;100.00
76070;BME280;64768;51.738;5.852;2023-02-22T15:22:22;101147.69;;;10.35;100.00
76070;BME280;64768;51.738;5.852;2023-02-22T15:24:58;101151.59;;;10.37;100.00
76070;BME280;64768;51.738;5.852;2023-02-22T15:28:10;101145.00;;;10.28;100.00
76070;BME280;64768;51.738;5.852;2023-02-22T15:31:21;101149.25;;;10.18;100.00
76070;BME280;64768;51.738;5.852;2023-02-22T15:36:47;101143.06;;;10.10;100.00
76070;BME280;64768;51.738;5.852;2023-02-22T15:39:51;101143.84;;;10.11;100.00
76070;BME280;64768;51.738;5.852;2023-02-22T15:50:26;101155.09;;;10.02;100.00
76070;BME280;64768;51.738;5.852;2023-02-22T15:52:59;101148.91;;;9.95;100.00
76070;BME280;64768;51.738;5.852;2023-02-22T15:55:34;101169.88;;;10.05;100.00
76070;BME280;64768;51.738;5.852;2023-02-22T16:00:44;101159.00;;;9.87;100.00
76070;BME280;64768;51.738;5.852;2023-02-22T16:03:26;101162.88;;;9.89;100.00
76070;BME280;64768;51.738;5.852;2023-02-22T16:06:29;101165.22;;;9.87;100.00
76070;BME280;64768;51.738;5.852;2023-02-22T16:09:09;101187.00;;;9.95;100.00
76070;BME280;64768;51.738;5.852;2023-02-22T16:12:08;101161.34;;;9.78;100.00
76070;BME280;64768;51.738;5.852;2023-02-22T16:22:47;101182.31;;;9.81;100.00
76070;BME280;64768;51.738;5.852;2023-02-22T16:25:33;101181.94;;;9.79;100.00
76070;BME280;64768;51.738;5.852;2023-02-22T16:28:32;101157.03;;;9.62;100.00
76070;BME280;64768;51.738;5.852;2023-02-22T16:31:10;101174.91;;;9.71;100.00
76070;BME280;64768;51.738;5.852;2023-02-22T16:33:45;101164.81;;;9.60;100.00
76070;BME280;64768;51.738;5.852;2023-02-22T16:42:28;101170.63;;;9.52;100.00
76070;BME280;64768;51.738;5.852;2023-02-22T17:16:33;101189.16;;;9.14;100.00
76070;BME280;64768;51.738;5.852;2023-02-22T17:19:10;101203.53;;;9.18;100.00
76070;BME280;64768;51.738;5.852;2023-02-22T17:26:59;101202.31;;;9.05;100.00
76070;BME280;64768;51.738;5.852;2023-02-22T17:32:14;101205.38;;;9.00;100.00
76070;BME280;64768;51.738;5.852;2023-02-22T17:34:51;101210.84;;;9.03;100.00
76070;BME280;64768;51.738;5.852;2023-02-22T17:37:40;101195.63;;;8.88;100.00
76070;BME280;64768;51.738;5.852;2023-02-22T17:40:26;101205.72;;;8.88;100.00
76070;BME280;64768;51.738;5.852;2023-02-22T17:43:00;101207.25;;;8.82;100.00
76070;BME280;64768;51.738;5.852;2023-02-22T17:45:43;101217.75;;;8.87;100.00
76070;BME280;64768;51.738;5.852;2023-02-22T18:22:41;101235.88;;;8.68;100.00
76070;BME280;64768;51.738;5.852;2023-02-22T18:25:21;101236.25;;;8.67;100.00
76070;BME280;64768;51.738;5.852;2023-02-22T18:28:03;101251.78;;;8.73;100.00
76070;BME280;64768;51.738;5.852;2023-02-22T18:30:57;101244.38;;;8.63;100.00
76070;BME280;64768;51.738;5.852;2023-02-22T18:33:55;101237.78;;;8.64;100.00
76070;BME280;64768;51.738;5.852;2023-02-22T18:36:44;101240.53;;;8.68;100.00
76070;BME280;64768;51.738;5.852;2023-02-22T18:39:35;101235.03;;;8.61;100.00
76070;BME280;64768;51.738;5.852;2023-02-22T18:42:18;101233.88;;;8.62;100.00
76070;BME280;64768;51.738;5.852;2023-02-22T18:45:21;101243.59;;;8.63;100.00
76070;BME280;64768;51.738;5.852;2023-02-22T18:47:55;101228.03;;;8.56;100.00
76070;BME280;64768;51.738;5.852;2023-02-22T18:50:28;101248.66;;;8.68;100.00
76070;BME280;64768;51.738;5.852;2023-02-22T18:53:14;101225.28;;;8.53;100.00
76070;BME280;64768;51.738;5.852;2023-02-22T18:56:06;101224.50;;;8.52;100.00
76070;BME280;64768;51.738;5.852;2023-02-22T18:59:17;101220.63;;;8.50;100.00
76070;BME280;64768;51.738;5.852;2023-02-22T19:19:06;101251.69;;;8.59;100.00
76070;BME280;64768;51.738;5.852;2023-02-22T19:33:25;101243.13;;;8.50;100.00
76070;BME280;64768;51.738;5.852;2023-02-22T19:36:22;101255.16;;;8.56;100.00
76070;BME280;64768;51.738;5.852;2023-02-22T19:39:14;101257.09;;;8.56;100.00
76070;BME280;64768;51.738;5.852;2023-02-22T19:41:55;101243.88;;;8.47;100.00
76070;BME280;64768;51.738;5.852;2023-02-22T19:44:30;101241.09;;;8.40;100.00
76070;BME280;64768;51.738;5.852;2023-02-22T19:47:06;101244.22;;;8.42;100.00
76070;BME280;64768;51.738;5.852;2023-02-22T20:00:49;101272.97;;;8.50;100.00
76070;BME280;64768;51.738;5.852;2023-02-22T20:03:33;101254.25;;;8.38;100.00
76070;BME280;64768;51.738;5.852;2023-02-22T20:06:15;101269.09;;;8.51;100.00
76070;BME280;64768;51.738;5.852;2023-02-22T20:08:55;101255.81;;;8.35;100.00
76070;BME280;64768;51.738;5.852;2023-02-22T20:11:39;101256.97;;;8.34;100.00
76070;BME280;64768;51.738;5.852;2023-02-22T20:14:19;101275.28;;;8.48;100.00
76070;BME280;64768;51.738;5.852;2023-02-22T20:17:15;101276.38;;;8.40;100.00
76070;BME280;64768;51.738;5.852;2023-02-22T20:19:58;101264.28;;;8.30;100.00
76070;BME280;64768;51.738;5.852;2023-02-22T20:22:37;101265.81;;;8.31;100.00
76070;BME280;64768;51.738;5.852;2023-02-22T20:25:33;101259.63;;;8.31;100.00
76070;BME280;64768;51.738;5.852;2023-02-22T20:28:13;101282.19;;;8.42;100.00
76070;BME280;64768;51.738;5.852;2023-02-22T20:30:56;101268.94;;;8.33;100.00
76070;BME280;64768;51.738;5.852;2023-02-22T20:33:39;101273.63;;;8.36;100.00
76070;BME280;64768;51.738;5.852;2023-02-22T20:36:18;101265.38;;;8.26;100.00
76070;BME280;64768;51.738;5.852;2023-02-22T20:39:01;101270.41;;;8.24;100.00
76070;BME280;64768;51.738;5.852;2023-02-22T20:41:52;101271.56;;;8.23;100.00
76070;BME280;64768;51.738;5.852;2023-02-22T20:44:32;101271.94;;;8.25;100.00
76070;BME280;64768;51.738;5.852;2023-02-22T20:47:18;101283.25;;;8.30;100.00
76070;BME280;64768;51.738;5.852;2023-02-22T20:50:05;101280.50;;;8.27;100.00
76070;BME280;64768;51.738;5.852;2023-02-22T20:52:55;101281.63;;;8.22;100.00
76070;BME280;64768;51.738;5.852;2023-02-22T20:56:10;101277.34;;;8.21;100.00
76070;BME280;64768;51.738;5.852;2023-02-22T20:59:03;101296.00;;;8.26;100.00
76070;BME280;64768;51.738;5.852;2023-02-22T21:01:55;101308.09;;;8.32;100.00
76070;BME280;64768;51.738;5.852;2023-02-22T21:04:39;101302.66;;;8.32;100.00
76070;BME280;64768;51.738;5.852;2023-02-22T21:13:40;101304.19;;;8.30;100.00
76070;BME280;64768;51.738;5.852;2023-02-22T21:16:26;101299.88;;;8.25;100.00
76070;BME280;64768;51.738;5.852;2023-02-22T21:19:29;101307.25;;;8.28;100.00
76070;BME280;64768;51.738;5.852;2023-02-22T21:22:19;101288.50;;;8.12;100.00
76070;BME280;64768;51.738;5.852;2023-02-22T21:24:52;101301.03;;;8.28;100.00
76070;BME280;64768;51.738;5.852;2023-02-22T21:27:33;101279.97;;;8.10;100.00
76070;BME280;64768;51.738;5.852;2023-02-22T21:33:34;101293.22;;;8.19;100.00
76070;BME280;64768;51.738;5.852;2023-02-22T21:36:17;101283.84;;;8.13;100.00
76070;BME280;64768;51.738;5.852;2023-02-22T21:39:14;101290.13;;;8.17;100.00
76070;BME280;64768;51.738;5.852;2023-02-22T21:50:42;101285.75;;;8.09;100.00
76070;BME280;64768;51.738;5.852;2023-02-22T21:53:23;101307.19;;;8.21;100.00
76070;BME280;64768;51.738;5.852;2023-02-22T21:56:01;101285.78;;;8.12;100.00
76070;BME280;64768;51.738;5.852;2023-02-22T21:58:40;101280.31;;;8.05;100.00
76070;BME280;64768;51.738;5.852;2023-02-22T22:01:33;101307.19;;;8.21;100.00
76070;BME280;64768;51.738;5.852;2023-02-22T22:04:18;101279.13;;;8.03;100.00
76070;BME280;64768;51.738;5.852;2023-02-22T22:07:01;101279.13;;;8.03;100.00
76070;BME280;64768;51.738;5.852;2023-02-22T22:09:45;101287.28;;;8.06;100.00
76070;BME280;64768;51.738;5.852;2023-02-22T22:18:59;101296.31;;;8.18;100.00
76070;BME280;64768;51.738;5.852;2023-02-22T22:25:17;101286.94;;;8.11;100.00
76070;BME280;64768;51.738;5.852;2023-02-22T22:28:25;101272.16;;;8.02;100.00
76070;BME280;64768;51.738;5.852;2023-02-22T22:31:20;101281.91;;;8.10;100.00
76070;BME280;64768;51.738;5.852;2023-02-22T22:34:22;101284.56;;;8.06;100.00
76070;BME280;64768;51.738;5.852;2023-02-22T22:37:00;101287.69;;;8.08;100.00
76070;BME280;64768;51.738;5.852;2023-02-22T22:39:30;101294.72;;;8.13;100.00
76070;BME280;64768;51.738;5.852;2023-02-22T22:42:06;101296.63;;;8.12;100.00
76070;BME280;64768;51.738;5.852;2023-02-22T22:44:36;101290.78;;;8.07;100.00
76070;BME280;64768;51.738;5.852;2023-02-22T22:47:15;101293.88;;;8.05;100.00
76070;BME280;64768;51.738;5.852;2023-02-22T22:49:48;101289.59;;;8.04;100.00
76070;BME280;64768;51.738;5.852;2023-02-22T22:52:26;101290.38;;;8.05;100.00
76070;BME280;64768;51.738;5.852;2023-02-22T22:55:01;101291.16;;;8.05;100.00
76070;BME280;64768;51.738;5.852;2023-02-22T22:57:41;101288.41;;;8.02;100.00
76070;BME280;64768;51.738;5.852;2023-02-22T23:00:15;101281.06;;;8.02;100.00
76070;BME280;64768;51.738;5.852;2023-02-22T23:03:02;101286.41;;;7.95;100.00
76070;BME280;64768;51.738;5.852;2023-02-22T23:05:41;101300.47;;;8.08;100.00